createdAt,value
2018-09-14T00:00:02.204Z,61.28
2018-09-14T00:01:02.301Z,61.32
2018-09-14T00:02:02.422Z,61.29
2018-09-14T00:03:02.427Z,61.28
2018-09-14T00:04:02.327Z,61.27
2018-09-14T00:05:02.847Z,61.26
2018-09-14T00:06:02.252Z,61.23
2018-09-14T00:07:02.376Z,61.27
2018-09-14T00:08:02.250Z,61.2
2018-09-14T00:09:02.246Z,61.2
2018-09-14T00:10:02.423Z,61.24
2018-09-14T00:11:02.629Z,61.22
2018-09-14T00:12:02.317Z,61.26
2018-09-14T00:13:02.587Z,61.36
2018-09-14T00:14:02.440Z,61.33
2018-09-14T00:15:02.248Z,61.3
2018-09-14T00:16:02.255Z,61.27
2018-09-14T00:17:02.369Z,61.24
2018-09-14T00:18:02.844Z,61.23
2018-09-14T00:19:02.329Z,61.31
2018-09-14T00:20:02.635Z,61.23
2018-09-14T00:21:02.442Z,61.23
2018-09-14T00:22:02.249Z,61.21
2018-09-14T00:23:02.057Z,61.2
2018-09-14T00:24:02.225Z,61.2
2018-09-14T00:25:02.337Z,61.29
2018-09-14T00:26:02.281Z,61.24
2018-09-14T00:27:02.199Z,61.18
2018-09-14T00:28:02.366Z,61.25
2018-09-14T00:29:02.279Z,61.24
2018-09-14T00:30:02.511Z,61.22
2018-09-14T00:31:02.491Z,61.31
2018-09-14T00:32:02.411Z,61.27
2018-09-14T00:33:02.290Z,61.27
2018-09-14T00:34:02.448Z,61.32
2018-09-14T00:35:02.379Z,61.24
2018-09-14T00:36:02.240Z,61.24
2018-09-14T00:37:02.382Z,61.18
2018-09-14T00:38:02.388Z,61.16
2018-09-14T00:39:02.442Z,61.11
2018-09-14T00:40:02.803Z,61.23
2018-09-14T00:41:02.281Z,61.19
2018-09-14T00:42:02.333Z,61.18
2018-09-14T00:43:02.351Z,61.16
2018-09-14T00:44:02.425Z,61.16
2018-09-14T00:45:02.568Z,61.16
2018-09-14T00:46:02.414Z,61.19
2018-09-14T00:47:02.652Z,61.24
2018-09-14T00:48:02.374Z,61.21
2018-09-14T00:49:02.435Z,61.28
2018-09-14T00:50:02.538Z,61.2
2018-09-14T00:51:02.398Z,61.2
2018-09-14T00:52:02.630Z,61.25
2018-09-14T00:53:02.285Z,61.21
2018-09-14T00:54:02.440Z,61.14
2018-09-14T00:55:02.675Z,61.2
2018-09-14T00:56:02.310Z,61.21
2018-09-14T00:57:02.316Z,61.14
2018-09-14T00:58:03.328Z,61.2
2018-09-14T00:59:02.342Z,61.22
2018-09-14T01:00:02.372Z,61.13
2018-09-14T01:01:02.310Z,61.24
2018-09-14T01:02:02.324Z,61.19
2018-09-14T01:03:02.411Z,61.23
2018-09-14T01:04:02.480Z,61.29
2018-09-14T01:05:02.397Z,61.26
2018-09-14T01:06:02.648Z,61.24
2018-09-14T01:07:02.555Z,61.24
2018-09-14T01:08:02.610Z,61.23
2018-09-14T01:09:02.420Z,61.2
2018-09-14T01:10:02.336Z,61.29
2018-09-14T01:11:02.383Z,61.33
2018-09-14T01:12:02.307Z,61.29
2018-09-14T01:13:02.495Z,61.33
2018-09-14T01:14:02.209Z,61.28
2018-09-14T01:15:02.249Z,61.24
2018-09-14T01:16:02.388Z,61.27
2018-09-14T01:17:02.659Z,61.28
2018-09-14T01:18:02.150Z,61.22
2018-09-14T01:19:02.331Z,61.28
2018-09-14T01:20:02.628Z,61.23
2018-09-14T01:21:02.373Z,61.19
2018-09-14T01:22:02.604Z,61.23
2018-09-14T01:23:02.343Z,61.23
2018-09-14T01:24:02.567Z,61.23
2018-09-14T01:25:02.441Z,61.27
2018-09-14T01:26:02.421Z,61.26
2018-09-14T01:27:02.264Z,61.23
2018-09-14T01:28:02.646Z,61.26
2018-09-14T01:29:02.477Z,61.19
2018-09-14T01:30:02.532Z,61.25
2018-09-14T01:31:02.697Z,61.2
2018-09-14T01:32:02.287Z,61.13
2018-09-14T01:33:02.327Z,61.15
2018-09-14T01:34:02.331Z,61.24
2018-09-14T01:35:02.636Z,61.26
2018-09-14T01:36:02.362Z,61.2
2018-09-14T01:37:02.248Z,61.21
2018-09-14T01:38:02.786Z,61.2
2018-09-14T01:39:02.394Z,61.25
2018-09-14T01:40:02.189Z,61.21
2018-09-14T01:41:02.322Z,61.18
2018-09-14T01:42:02.513Z,61.16
2018-09-14T01:43:02.438Z,61.17
2018-09-14T01:44:02.382Z,61.21
2018-09-14T01:45:02.554Z,61.18
2018-09-14T01:46:02.391Z,61.23
2018-09-14T01:47:02.138Z,61.28
2018-09-14T01:48:02.347Z,61.28
2018-09-14T01:49:02.399Z,61.21
2018-09-14T01:50:02.325Z,61.23
2018-09-14T01:51:02.271Z,61.24
2018-09-14T01:52:02.118Z,61.28
2018-09-14T01:53:02.291Z,61.23
2018-09-14T01:54:02.360Z,61.28
2018-09-14T01:55:02.269Z,61.3
2018-09-14T01:56:02.435Z,61.29
2018-09-14T01:57:02.104Z,61.3
2018-09-14T01:58:02.397Z,61.29
2018-09-14T01:59:02.347Z,61.32
2018-09-14T02:00:02.510Z,61.28
2018-09-14T02:01:02.261Z,61.28
2018-09-14T02:02:02.489Z,61.32
2018-09-14T02:03:02.268Z,61.25
2018-09-14T02:04:02.089Z,61.28
2018-09-14T02:05:02.209Z,61.25
2018-09-14T02:06:02.696Z,61.26
2018-09-14T02:07:02.220Z,61.28
2018-09-14T02:08:03.088Z,61.28
2018-09-14T02:09:02.310Z,61.27
2018-09-14T02:10:02.631Z,61.24
2018-09-14T02:11:02.480Z,61.21
2018-09-14T02:12:02.362Z,61.23
2018-09-14T02:13:02.495Z,61.26
2018-09-14T02:14:02.252Z,61.29
2018-09-14T02:15:02.466Z,61.27
2018-09-14T02:16:02.344Z,61.3
2018-09-14T02:17:02.322Z,61.21
2018-09-14T02:18:02.290Z,61.21
2018-09-14T02:19:02.316Z,61.21
2018-09-14T02:20:02.290Z,61.19
2018-09-14T02:21:02.429Z,61.17
2018-09-14T02:22:02.447Z,61.2
2018-09-14T02:23:02.400Z,61.23
2018-09-14T02:24:02.421Z,61.16
2018-09-14T02:25:02.239Z,61.18
2018-09-14T02:26:02.238Z,61.23
2018-09-14T02:27:02.297Z,61.23
2018-09-14T02:28:02.422Z,61.23
2018-09-14T02:29:02.400Z,61.23
2018-09-14T02:30:02.312Z,61.21
2018-09-14T02:31:02.321Z,61.17
2018-09-14T02:32:02.434Z,61.2
2018-09-14T02:33:02.492Z,61.22
2018-09-14T02:34:02.164Z,61.22
2018-09-14T02:35:02.262Z,61.16
2018-09-14T02:36:02.410Z,61.19
2018-09-14T02:37:02.300Z,61.26
2018-09-14T02:38:02.261Z,61.25
2018-09-14T02:39:02.505Z,61.21
2018-09-14T02:40:02.204Z,61.17
2018-09-14T02:41:02.204Z,61.1
2018-09-14T02:42:02.318Z,61.19
2018-09-14T02:43:02.192Z,61.23
2018-09-14T02:44:02.665Z,61.3
2018-09-14T02:45:02.445Z,61.25
2018-09-14T02:46:02.440Z,61.2
2018-09-14T02:47:02.626Z,61.23
2018-09-14T02:48:02.291Z,61.23
2018-09-14T02:49:02.482Z,61.28
2018-09-14T02:50:02.544Z,61.36
2018-09-14T02:51:02.214Z,61.32
2018-09-14T02:52:02.377Z,61.33
2018-09-14T02:53:02.321Z,61.38
2018-09-14T02:54:02.389Z,61.33
2018-09-14T02:55:02.332Z,61.32
2018-09-14T02:56:02.257Z,61.26
2018-09-14T02:57:02.360Z,61.26
2018-09-14T02:58:02.407Z,61.32
2018-09-14T02:59:02.212Z,61.28
2018-09-14T03:00:02.961Z,61.25
2018-09-14T03:01:02.285Z,61.34
2018-09-14T03:02:02.219Z,61.36
2018-09-14T03:03:02.189Z,61.24
2018-09-14T03:04:02.334Z,61.25
2018-09-14T03:05:02.370Z,61.28
2018-09-14T03:06:02.277Z,61.25
2018-09-14T03:07:02.243Z,61.32
2018-09-14T03:08:02.384Z,61.3
2018-09-14T03:09:02.246Z,61.32
2018-09-14T03:10:02.376Z,61.34
2018-09-14T03:11:02.301Z,61.31
2018-09-14T03:12:02.290Z,61.23
2018-09-14T03:13:02.191Z,61.23
2018-09-14T03:14:02.348Z,61.28
2018-09-14T03:15:02.229Z,61.28
2018-09-14T03:16:02.244Z,61.34
2018-09-14T03:17:02.252Z,61.26
2018-09-14T03:18:02.435Z,61.28
2018-09-14T03:19:02.530Z,61.26
2018-09-14T03:20:02.333Z,61.26
2018-09-14T03:21:02.302Z,61.22
2018-09-14T03:22:02.340Z,61.2
2018-09-14T03:23:02.234Z,61.26
2018-09-14T03:24:02.506Z,61.23
2018-09-14T03:25:02.391Z,61.29
2018-09-14T03:26:02.316Z,61.16
2018-09-14T03:27:02.184Z,61.2
2018-09-14T03:28:02.442Z,61.28
2018-09-14T03:29:02.524Z,61.24
2018-09-14T03:30:02.348Z,61.16
2018-09-14T03:31:02.437Z,61.14
2018-09-14T03:32:02.207Z,61.1
2018-09-14T03:33:02.478Z,61.19
2018-09-14T03:34:02.420Z,61.12
2018-09-14T03:35:02.334Z,61.17
2018-09-14T03:36:02.299Z,61.16
2018-09-14T03:37:02.281Z,61.26
2018-09-14T03:38:02.362Z,61.31
2018-09-14T03:39:02.621Z,61.26
2018-09-14T03:40:02.328Z,61.31
2018-09-14T03:41:02.514Z,61.26
2018-09-14T03:42:02.442Z,61.23
2018-09-14T03:43:02.403Z,61.24
2018-09-14T03:44:02.425Z,61.24
2018-09-14T03:45:02.478Z,61.2
2018-09-14T03:46:02.372Z,61.14
2018-09-14T03:47:02.709Z,61.1
2018-09-14T03:48:02.578Z,61.15
2018-09-14T03:49:02.385Z,61.17
2018-09-14T03:50:02.428Z,61.1
2018-09-14T03:51:02.382Z,61.1
2018-09-14T03:52:02.437Z,61.26
2018-09-14T03:53:02.437Z,61.2
2018-09-14T03:54:02.344Z,61.18
2018-09-14T03:55:02.713Z,61.23
2018-09-14T03:56:02.435Z,61.21
2018-09-14T03:57:02.156Z,61.2
2018-09-14T03:58:02.423Z,61.24
2018-09-14T03:59:02.437Z,61.19
2018-09-14T04:00:02.233Z,61.17
2018-09-14T04:01:02.442Z,61.24
2018-09-14T04:02:02.226Z,61.19
2018-09-14T04:03:02.456Z,61.16
2018-09-14T04:04:02.321Z,61.21
2018-09-14T04:05:03.143Z,61.17
2018-09-14T04:06:02.404Z,61.19
2018-09-14T04:07:02.194Z,61.21
2018-09-14T04:08:02.471Z,61.19
2018-09-14T04:09:02.246Z,61.26
2018-09-14T04:10:02.355Z,61.34
2018-09-14T04:11:02.314Z,61.18
2018-09-14T04:12:02.244Z,61.22
2018-09-14T04:13:02.190Z,61.28
2018-09-14T04:14:02.697Z,61.24
2018-09-14T04:15:02.597Z,61.25
2018-09-14T04:16:02.317Z,61.37
2018-09-14T04:17:02.355Z,61.35
2018-09-14T04:18:02.544Z,61.27
2018-09-14T04:19:02.433Z,61.3
2018-09-14T04:20:02.269Z,61.2
2018-09-14T04:21:02.404Z,61.25
2018-09-14T04:22:02.364Z,61.28
2018-09-14T04:23:02.431Z,61.24
2018-09-14T04:24:02.413Z,61.19
2018-09-14T04:25:02.362Z,61.18
2018-09-14T04:26:02.232Z,61.15
2018-09-14T04:27:02.309Z,61.18
2018-09-14T04:28:02.220Z,61.31
2018-09-14T04:29:02.372Z,61.26
2018-09-14T04:30:02.528Z,61.23
2018-09-14T04:31:02.327Z,61.22
2018-09-14T04:32:02.311Z,61.28
2018-09-14T04:33:02.274Z,61.24
2018-09-14T04:34:02.401Z,61.25
2018-09-14T04:35:02.246Z,61.22
2018-09-14T04:36:02.283Z,61.16
2018-09-14T04:37:02.281Z,61.13
2018-09-14T04:38:02.872Z,61.17
2018-09-14T04:39:02.339Z,61.14
2018-09-14T04:40:02.269Z,61.27
2018-09-14T04:41:02.285Z,61.25
2018-09-14T04:42:02.219Z,61.26
2018-09-14T04:43:02.259Z,61.23
2018-09-14T04:44:02.414Z,61.19
2018-09-14T04:45:02.958Z,61.2
2018-09-14T04:46:02.408Z,61.3
2018-09-14T04:47:02.141Z,61.27
2018-09-14T04:48:02.415Z,61.29
2018-09-14T04:49:02.298Z,61.39
2018-09-14T04:50:02.306Z,61.31
2018-09-14T04:51:02.496Z,61.24
2018-09-14T04:52:02.297Z,61.25
2018-09-14T04:53:02.581Z,61.25
2018-09-14T04:54:02.460Z,61.25
2018-09-14T04:55:02.283Z,61.23
2018-09-14T04:56:02.324Z,61.2
2018-09-14T04:57:02.409Z,61.21
2018-09-14T04:58:02.400Z,61.24
2018-09-14T04:59:02.453Z,61.22
2018-09-14T05:00:02.277Z,61.24
2018-09-14T05:01:02.278Z,61.22
2018-09-14T05:02:02.282Z,61.24
2018-09-14T05:03:02.876Z,61.21
2018-09-14T05:04:02.219Z,61.27
2018-09-14T05:05:02.349Z,61.26
2018-09-14T05:06:02.306Z,61.24
2018-09-14T05:07:02.601Z,61.23
2018-09-14T05:08:02.571Z,61.19
2018-09-14T05:09:02.297Z,61.19
2018-09-14T05:10:02.247Z,61.26
2018-09-14T05:11:02.595Z,61.23
2018-09-14T05:12:02.388Z,61.2
2018-09-14T05:13:02.636Z,61.24
2018-09-14T05:14:02.713Z,61.19
2018-09-14T05:15:02.371Z,61.18
2018-09-14T05:16:02.251Z,61.25
2018-09-14T05:17:02.676Z,61.24
2018-09-14T05:18:02.302Z,61.12
2018-09-14T05:19:02.200Z,61.17
2018-09-14T05:20:02.373Z,61.19
2018-09-14T05:21:02.336Z,61.18
2018-09-14T05:22:02.361Z,61.14
2018-09-14T05:23:02.333Z,61.04
2018-09-14T05:24:02.808Z,61.06
2018-09-14T05:25:03.506Z,61.05
2018-09-14T05:26:02.468Z,61.15
2018-09-14T05:27:02.173Z,61.17
2018-09-14T05:28:02.355Z,61.19
2018-09-14T05:29:02.362Z,61.15
2018-09-14T05:30:02.438Z,61.16
2018-09-14T05:31:02.592Z,61.18
2018-09-14T05:32:02.858Z,61.09
2018-09-14T05:33:02.337Z,61.09
2018-09-14T05:34:02.641Z,61.23
2018-09-14T05:35:02.305Z,61.19
2018-09-14T05:36:02.535Z,61.15
2018-09-14T05:37:02.323Z,61.16
2018-09-14T05:38:02.475Z,61.03
2018-09-14T05:39:02.405Z,61.12
2018-09-14T05:40:02.202Z,61.23
2018-09-14T05:41:02.178Z,61.21
2018-09-14T05:42:02.608Z,61.21
2018-09-14T05:43:02.198Z,61.27
2018-09-14T05:44:02.245Z,61.2
2018-09-14T05:45:02.555Z,61.23
2018-09-14T05:46:02.402Z,61.17
2018-09-14T05:47:02.200Z,61.08
2018-09-14T05:48:02.181Z,61.1
2018-09-14T05:49:02.354Z,61.21
2018-09-14T05:50:02.104Z,61.17
2018-09-14T05:51:02.329Z,61.19
2018-09-14T05:52:02.534Z,61.27
2018-09-14T05:53:02.332Z,61.18
2018-09-14T05:54:02.279Z,61.21
2018-09-14T05:55:02.588Z,61.21
2018-09-14T05:56:02.283Z,61.21
2018-09-14T05:57:02.149Z,61.22
2018-09-14T05:58:02.489Z,61.18
2018-09-14T05:59:02.308Z,61.15
2018-09-14T06:00:02.365Z,61.18
2018-09-14T06:01:02.182Z,61.23
2018-09-14T06:02:02.479Z,61.19
2018-09-14T06:03:02.124Z,61.22
2018-09-14T06:04:02.426Z,61.12
2018-09-14T06:05:02.354Z,61.1
2018-09-14T06:06:02.115Z,61.11
2018-09-14T06:07:02.236Z,61.19
2018-09-14T06:08:02.226Z,61.18
2018-09-14T06:09:02.456Z,61.2
2018-09-14T06:10:02.329Z,61.23
2018-09-14T06:11:02.499Z,61.19
2018-09-14T06:12:02.640Z,61.17
2018-09-14T06:13:02.226Z,61.21
2018-09-14T06:14:02.543Z,61.24
2018-09-14T06:15:02.177Z,61.23
2018-09-14T06:16:02.412Z,61.23
2018-09-14T06:17:03.374Z,61.24
2018-09-14T06:18:02.499Z,61.15
2018-09-14T06:19:02.406Z,61.15
2018-09-14T06:20:02.216Z,61.11
2018-09-14T06:21:02.237Z,61.07
2018-09-14T06:22:02.349Z,61.15
2018-09-14T06:23:03.291Z,61.19
2018-09-14T06:24:02.568Z,61.22
2018-09-14T06:25:02.864Z,61.13
2018-09-14T06:26:02.339Z,61.17
2018-09-14T06:27:02.421Z,61.1
2018-09-14T06:28:02.405Z,61.1
2018-09-14T06:29:02.153Z,61.21
2018-09-14T06:30:02.490Z,61.15
2018-09-14T06:31:02.346Z,61.16
2018-09-14T06:32:02.129Z,61.11
2018-09-14T06:33:02.443Z,61.14
2018-09-14T06:34:02.430Z,61.24
2018-09-14T06:35:02.194Z,61.03
2018-09-14T06:36:02.235Z,61.05
2018-09-14T06:37:03.048Z,61.11
2018-09-14T06:38:02.314Z,61.14
2018-09-14T06:39:02.160Z,61.15
2018-09-14T06:40:02.229Z,61.14
2018-09-14T06:41:02.708Z,61.15
2018-09-14T06:42:02.370Z,61.14
2018-09-14T06:43:02.169Z,61.18
2018-09-14T06:44:02.194Z,61.09
2018-09-14T06:45:03.053Z,61.07
2018-09-14T06:46:02.515Z,61.11
2018-09-14T06:47:02.130Z,61.16
2018-09-14T06:48:02.331Z,61.19
2018-09-14T06:49:02.208Z,61.19
2018-09-14T06:50:02.562Z,61.12
2018-09-14T06:51:02.194Z,61.12
2018-09-14T06:52:04.047Z,61.06
2018-09-14T06:53:02.134Z,61.06
2018-09-14T06:54:02.391Z,61.1
2018-09-14T06:55:02.521Z,61.09
2018-09-14T06:56:02.285Z,61.1
2018-09-14T06:57:02.327Z,61.01
2018-09-14T06:58:02.398Z,61.06
2018-09-14T06:59:02.517Z,61.15
2018-09-14T07:00:03.042Z,61.1
2018-09-14T07:01:02.407Z,61.17
2018-09-14T07:02:02.337Z,61.16
2018-09-14T07:03:02.217Z,61.1
2018-09-14T07:04:02.193Z,61.21
2018-09-14T07:05:02.477Z,61.18
2018-09-14T07:06:02.155Z,61.19
2018-09-14T07:07:02.391Z,61.21
2018-09-14T07:08:02.168Z,61.16
2018-09-14T07:09:02.470Z,61.1
2018-09-14T07:10:02.238Z,61.16
2018-09-14T07:11:02.190Z,61.17
2018-09-14T07:12:02.614Z,61.14
2018-09-14T07:13:02.642Z,61.1
2018-09-14T07:14:02.256Z,61.17
2018-09-14T07:15:02.268Z,61.08
2018-09-14T07:16:02.336Z,61.06
2018-09-14T07:17:02.257Z,61.12
2018-09-14T07:18:02.353Z,61.13
2018-09-14T07:19:02.441Z,61.14
2018-09-14T07:20:02.154Z,61.11
2018-09-14T07:21:02.408Z,61.15
2018-09-14T07:22:02.819Z,61.19
2018-09-14T07:23:02.367Z,61.1
2018-09-14T07:24:02.098Z,61.08
2018-09-14T07:25:02.443Z,61.23
2018-09-14T07:26:02.472Z,61.18
2018-09-14T07:27:02.412Z,61.15
2018-09-14T07:28:02.434Z,61.07
2018-09-14T07:29:04.702Z,61.05
2018-09-14T07:30:02.989Z,61.06
2018-09-14T07:31:02.254Z,61.06
2018-09-14T07:32:02.589Z,61.08
2018-09-14T07:33:02.319Z,61.06
2018-09-14T07:34:02.577Z,61.1
2018-09-14T07:35:02.280Z,61.12
2018-09-14T07:36:02.589Z,61.07
2018-09-14T07:37:02.518Z,61.12
2018-09-14T07:38:02.217Z,61.14
2018-09-14T07:39:02.180Z,61.1
2018-09-14T07:40:02.169Z,61.21
2018-09-14T07:41:02.279Z,61.24
2018-09-14T07:42:02.280Z,61.16
2018-09-14T07:43:02.847Z,61.18
2018-09-14T07:44:02.186Z,61.22
2018-09-14T07:45:02.326Z,61.2
2018-09-14T07:46:02.274Z,61.2
2018-09-14T07:47:02.135Z,61.11
2018-09-14T07:48:02.185Z,61.09
2018-09-14T07:49:02.119Z,61.13
2018-09-14T07:50:02.258Z,61.17
2018-09-14T07:51:02.160Z,61.09
2018-09-14T07:52:02.224Z,61.1
2018-09-14T07:53:02.624Z,61.1
2018-09-14T07:54:02.148Z,61.05
2018-09-14T07:55:02.309Z,61.07
2018-09-14T07:56:02.267Z,61.14
2018-09-14T07:57:02.293Z,61.07
2018-09-14T07:58:02.313Z,61.09
2018-09-14T07:59:02.217Z,61.13
2018-09-14T08:00:02.245Z,61.13
2018-09-14T08:01:02.200Z,61.07
2018-09-14T08:02:02.319Z,60.97
2018-09-14T08:03:02.287Z,61.08
2018-09-14T08:04:02.276Z,61.1
2018-09-14T08:05:02.200Z,61.13
2018-09-14T08:06:02.625Z,61.07
2018-09-14T08:07:02.583Z,61.12
2018-09-14T08:08:02.383Z,61.07
2018-09-14T08:09:02.412Z,61.09
2018-09-14T08:10:02.414Z,61.17
2018-09-14T08:11:02.300Z,61.17
2018-09-14T08:12:03.260Z,61.1
2018-09-14T08:13:02.396Z,61.14
2018-09-14T08:14:02.392Z,61.13
2018-09-14T08:15:02.425Z,61.08
2018-09-14T08:16:02.434Z,61.12
2018-09-14T08:17:02.516Z,61.02
2018-09-14T08:18:02.548Z,61
2018-09-14T08:19:02.518Z,61.16
2018-09-14T08:20:03.012Z,61.12
2018-09-14T08:21:02.822Z,61.06
2018-09-14T08:22:03.437Z,61.12
2018-09-14T08:23:02.362Z,61.08
2018-09-14T08:24:02.248Z,61.06
2018-09-14T08:25:02.524Z,61.19
2018-09-14T08:26:02.326Z,61.15
2018-09-14T08:27:03.132Z,61.21
2018-09-14T08:28:02.431Z,61.19
2018-09-14T08:29:02.192Z,61.14
2018-09-14T08:30:02.656Z,61.11
2018-09-14T08:31:02.285Z,61.09
2018-09-14T08:32:02.440Z,61.09
2018-09-14T08:33:02.281Z,61.08
2018-09-14T08:34:02.609Z,61.03
2018-09-14T08:35:02.362Z,61.07
2018-09-14T08:36:02.144Z,60.99
2018-09-14T08:37:02.471Z,61.1
2018-09-14T08:38:02.353Z,61.15
2018-09-14T08:39:02.581Z,61.06
2018-09-14T08:40:02.494Z,61.07
2018-09-14T08:41:02.192Z,61.1
2018-09-14T08:42:02.285Z,61.07
2018-09-14T08:43:02.184Z,61.03
2018-09-14T08:44:02.266Z,61.02
2018-09-14T08:45:01.988Z,61.04
2018-09-14T08:46:02.707Z,61.04
2018-09-14T08:47:02.438Z,61.09
2018-09-14T08:48:03.444Z,61.08
2018-09-14T08:49:02.375Z,61.02
2018-09-14T08:50:02.670Z,60.96
2018-09-14T08:51:02.441Z,61.08
2018-09-14T08:52:02.152Z,61.04
2018-09-14T08:53:02.327Z,61
2018-09-14T08:54:02.301Z,61.04
2018-09-14T08:55:02.690Z,61.03
2018-09-14T08:56:02.371Z,61
2018-09-14T08:57:02.255Z,61.06
2018-09-14T08:58:04.310Z,61.21
2018-09-14T08:59:02.265Z,61.19
2018-09-14T09:00:02.378Z,61.15
2018-09-14T09:01:02.669Z,61.2
2018-09-14T09:02:02.268Z,61.27
2018-09-14T09:03:02.138Z,61.16
2018-09-14T09:04:02.404Z,61.15
2018-09-14T09:05:02.343Z,61.17
2018-09-14T09:06:02.309Z,61.17
2018-09-14T09:07:02.620Z,61.18
2018-09-14T09:08:02.197Z,61.18
2018-09-14T09:09:02.707Z,61.08
2018-09-14T09:10:03.493Z,61.17
2018-09-14T09:11:02.134Z,61.24
2018-09-14T09:12:02.234Z,61.25
2018-09-14T09:13:02.278Z,61.28
2018-09-14T09:14:02.376Z,61.22
2018-09-14T09:15:02.092Z,61.24
2018-09-14T09:16:03.542Z,61.31
2018-09-14T09:17:02.263Z,61.26
2018-09-14T09:18:02.313Z,61.24
2018-09-14T09:19:02.168Z,61.27
2018-09-14T09:20:02.280Z,61.21
2018-09-14T09:21:02.108Z,61.24
2018-09-14T09:22:02.939Z,61.29
2018-09-14T09:23:02.249Z,61.25
2018-09-14T09:24:02.257Z,61.25
2018-09-14T09:25:02.403Z,61.26
2018-09-14T09:26:02.119Z,61.18
2018-09-14T09:27:02.193Z,61.19
2018-09-14T09:28:02.370Z,61.25
2018-09-14T09:29:02.345Z,61.32
2018-09-14T09:30:02.496Z,61.24
2018-09-14T09:31:02.228Z,61.26
2018-09-14T09:32:03.254Z,61.27
2018-09-14T09:33:03.433Z,61.22
2018-09-14T09:34:02.122Z,61.25
2018-09-14T09:35:03.026Z,61.24
2018-09-14T09:36:02.222Z,61.15
2018-09-14T09:37:02.449Z,61.2
2018-09-14T09:38:02.152Z,61.26
2018-09-14T09:39:02.242Z,61.17
2018-09-14T09:40:02.248Z,61.18
2018-09-14T09:41:02.324Z,61.19
2018-09-14T09:42:02.490Z,61.21
2018-09-14T09:43:02.932Z,61.3
2018-09-14T09:44:03.371Z,61.19
2018-09-14T09:45:02.273Z,61.21
2018-09-14T09:46:02.250Z,61.17
2018-09-14T09:47:02.342Z,61.17
2018-09-14T09:48:02.349Z,61.1
2018-09-14T09:49:03.062Z,61.15
2018-09-14T09:50:02.366Z,61.12
2018-09-14T09:51:02.833Z,61.17
2018-09-14T09:52:02.282Z,61.29
2018-09-14T09:53:02.236Z,61.25
2018-09-14T09:54:02.129Z,61.24
2018-09-14T09:55:02.345Z,61.24
2018-09-14T09:56:02.137Z,61.27
2018-09-14T09:57:02.287Z,61.21
2018-09-14T09:58:02.292Z,61.23
2018-09-14T09:59:02.138Z,61.2
2018-09-14T10:00:03.704Z,61.17
2018-09-14T10:01:02.538Z,61.17
2018-09-14T10:02:02.084Z,61.24
2018-09-14T10:03:02.429Z,61.17
2018-09-14T10:04:03.072Z,61.26
2018-09-14T10:05:02.461Z,61.21
2018-09-14T10:06:02.165Z,61.24
2018-09-14T10:07:02.330Z,61.21
2018-09-14T10:08:02.225Z,61.24
2018-09-14T10:09:02.365Z,61.12
2018-09-14T10:10:02.285Z,61.1
2018-09-14T10:11:02.324Z,61.18
2018-09-14T10:12:02.316Z,61.15
2018-09-14T10:13:02.663Z,61.15
2018-09-14T10:14:02.555Z,61.19
2018-09-14T10:15:03.230Z,61.15
2018-09-14T10:16:02.402Z,61.23
2018-09-14T10:17:02.306Z,61.21
2018-09-14T10:18:02.085Z,61.21
2018-09-14T10:19:02.101Z,61.14
2018-09-14T10:20:02.136Z,61.18
2018-09-14T10:21:03.055Z,61.14
2018-09-14T10:22:02.079Z,61.14
2018-09-14T10:23:02.356Z,61.17
2018-09-14T10:24:02.232Z,61.12
2018-09-14T10:25:02.216Z,61.13
2018-09-14T10:26:02.163Z,61.19
2018-09-14T10:27:02.490Z,61.12
2018-09-14T10:28:02.007Z,61.19
2018-09-14T10:29:03.187Z,61.17
2018-09-14T10:30:02.577Z,61.13
2018-09-14T10:31:02.069Z,61.17
2018-09-14T10:32:02.081Z,61.22
2018-09-14T10:33:02.339Z,61.17
2018-09-14T10:34:02.947Z,61.2
2018-09-14T10:35:02.457Z,61.22
2018-09-14T10:36:02.130Z,61.15
2018-09-14T10:37:03.126Z,61.19
2018-09-14T10:38:02.083Z,61.2
2018-09-14T10:39:02.215Z,61.11
2018-09-14T10:40:02.748Z,61.22
2018-09-14T10:41:02.212Z,61.19
2018-09-14T10:42:02.104Z,61.16
2018-09-14T10:43:02.119Z,61.19
2018-09-14T10:44:02.072Z,61.23
2018-09-14T10:45:02.308Z,61.21
2018-09-14T10:46:02.133Z,61.22
2018-09-14T10:47:02.163Z,61.22
2018-09-14T10:48:02.118Z,61.19
2018-09-14T10:49:02.114Z,61.19
2018-09-14T10:50:02.854Z,61.24
2018-09-14T10:51:02.501Z,61.16
2018-09-14T10:52:02.205Z,61.22
2018-09-14T10:53:02.292Z,61.21
2018-09-14T10:54:02.496Z,61.15
2018-09-14T10:55:02.288Z,61.16
2018-09-14T10:56:02.172Z,61.21
2018-09-14T10:57:02.408Z,61.19
2018-09-14T10:58:02.167Z,61.21
2018-09-14T10:59:03.133Z,61.22
2018-09-14T11:00:02.051Z,61.15
2018-09-14T11:01:02.477Z,61.19
2018-09-14T11:02:02.098Z,61.11
2018-09-14T11:03:02.329Z,61.12
2018-09-14T11:04:02.537Z,61.22
2018-09-14T11:05:02.293Z,61.17
2018-09-14T11:06:02.122Z,61.12
2018-09-14T11:07:03.305Z,61.2
2018-09-14T11:08:01.985Z,61.19
2018-09-14T11:09:02.354Z,61.14
2018-09-14T11:10:03.211Z,61.18
2018-09-14T11:11:02.297Z,61.15
2018-09-14T11:12:02.188Z,61.11
2018-09-14T11:13:03.271Z,61.2
2018-09-14T11:14:02.327Z,61.15
2018-09-14T11:15:03.122Z,61.12
2018-09-14T11:16:02.192Z,61.19
2018-09-14T11:17:02.185Z,61.17
2018-09-14T11:18:02.145Z,61.16
2018-09-14T11:19:03.151Z,61.16
2018-09-14T11:20:02.332Z,61.16
2018-09-14T11:21:02.291Z,61.13
2018-09-14T11:22:02.151Z,61.14
2018-09-14T11:23:02.345Z,61.15
2018-09-14T11:24:02.177Z,61.07
2018-09-14T11:25:03.394Z,61.14
2018-09-14T11:26:02.276Z,61.11
2018-09-14T11:27:02.441Z,61.11
2018-09-14T11:28:03.119Z,61.14
2018-09-14T11:29:02.406Z,61.13
2018-09-14T11:30:02.029Z,61.08
2018-09-14T11:31:02.330Z,61.13
2018-09-14T11:32:02.219Z,61.12
2018-09-14T11:33:02.448Z,61.08
2018-09-14T11:34:02.306Z,61.12
2018-09-14T11:35:02.349Z,61.13
2018-09-14T11:36:02.468Z,61.09
2018-09-14T11:37:02.503Z,61.14
2018-09-14T11:38:03.210Z,61.11
2018-09-14T11:39:02.332Z,61.04
2018-09-14T11:40:02.749Z,61.13
2018-09-14T11:41:02.562Z,61.1
2018-09-14T11:42:02.375Z,61.08
2018-09-14T11:43:02.222Z,61.11
2018-09-14T11:44:02.177Z,61.1
2018-09-14T11:45:02.591Z,61.05
2018-09-14T11:46:02.608Z,61.12
2018-09-14T11:47:02.458Z,61.13
2018-09-14T11:48:03.051Z,61.05
2018-09-14T11:49:02.291Z,61.11
2018-09-14T11:50:02.226Z,61.13
2018-09-14T11:51:02.268Z,61.07
2018-09-14T11:52:02.114Z,61.09
2018-09-14T11:53:02.407Z,61.1
2018-09-14T11:54:02.618Z,61.08
2018-09-14T11:55:02.276Z,61.1
2018-09-14T11:56:02.071Z,61.09
2018-09-14T11:57:02.294Z,61.05
2018-09-14T11:58:02.074Z,61.09
2018-09-14T11:59:02.130Z,61.12
2018-09-14T12:00:02.093Z,61.03
2018-09-14T12:01:02.318Z,61.07
2018-09-14T12:02:02.117Z,61.07
2018-09-14T12:03:02.523Z,61.06
2018-09-14T12:04:02.432Z,61.09
2018-09-14T12:05:02.179Z,61.08
2018-09-14T12:06:02.080Z,61.05
2018-09-14T12:07:02.227Z,61.09
2018-09-14T12:08:02.047Z,61.09
2018-09-14T12:09:02.235Z,61.02
2018-09-14T12:10:02.139Z,61.1
2018-09-14T12:11:02.084Z,61.08
2018-09-14T12:12:01.862Z,61.02
2018-09-14T12:13:02.048Z,61.08
2018-09-14T12:14:02.841Z,61.08
2018-09-14T12:15:02.184Z,61.04
2018-09-14T12:16:02.469Z,61.07
2018-09-14T12:17:02.241Z,61.08
2018-09-14T12:18:03.012Z,61.03
2018-09-14T12:19:02.364Z,61.03
2018-09-14T12:20:02.212Z,61.06
2018-09-14T12:21:02.473Z,61.05
2018-09-14T12:22:02.540Z,61.07
2018-09-14T12:23:02.781Z,61.1
2018-09-14T12:24:02.144Z,61.04
2018-09-14T12:25:02.954Z,61.04
2018-09-14T12:26:02.170Z,61.04
2018-09-14T12:27:02.302Z,61.01
2018-09-14T12:28:02.808Z,61.11
2018-09-14T12:29:02.192Z,61.06
2018-09-14T12:30:02.303Z,61
2018-09-14T12:31:02.351Z,61.08
2018-09-14T12:32:02.487Z,61.07
2018-09-14T12:33:02.486Z,61.04
2018-09-14T12:34:02.223Z,61.06
2018-09-14T12:35:02.220Z,61.08
2018-09-14T12:36:02.109Z,61.01
2018-09-14T12:37:02.275Z,61.08
2018-09-14T12:38:02.263Z,61.11
2018-09-14T12:39:02.051Z,61.05
2018-09-14T12:40:05.079Z,61.06
2018-09-14T12:41:02.099Z,61.1
2018-09-14T12:42:02.619Z,61.03
2018-09-14T12:43:02.405Z,61.07
2018-09-14T12:44:02.018Z,61.11
2018-09-14T12:45:02.414Z,61.07
2018-09-14T12:46:03.063Z,61.14
2018-09-14T12:47:02.543Z,61.06
2018-09-14T12:48:02.301Z,61.1
2018-09-14T12:49:02.232Z,61.08
2018-09-14T12:50:02.164Z,61.08
2018-09-14T12:51:02.291Z,61.08
2018-09-14T12:52:02.117Z,61.1
2018-09-14T12:53:02.250Z,61.09
2018-09-14T12:54:02.403Z,61.09
2018-09-14T12:55:02.233Z,61.11